createdAt,value
2019-03-15T00:05:08.817Z,959.4
2019-03-15T00:15:12.253Z,959.6
2019-03-15T00:25:15.670Z,959.4
2019-03-15T00:35:19.076Z,960
2019-03-15T00:45:22.519Z,959.4
2019-03-15T00:55:25.943Z,959.4
2019-03-15T01:05:29.367Z,959.5
2019-03-15T01:15:32.801Z,959.4
2019-03-15T01:25:36.235Z,959.3
2019-03-15T01:35:39.706Z,959.1
2019-03-15T01:45:43.904Z,959.2
2019-03-15T01:55:47.331Z,959.5
2019-03-15T02:05:52.097Z,959.4
2019-03-15T02:15:55.545Z,959.2
2019-03-15T02:25:58.971Z,959.3
2019-03-15T02:36:02.455Z,959.2
2019-03-15T02:46:05.910Z,959.4
2019-03-15T02:56:10.364Z,958.9
2019-03-15T03:06:13.782Z,958.8
2019-03-15T03:16:19.668Z,959
2019-03-15T03:26:23.110Z,958.9
2019-03-15T03:36:26.598Z,958.9
2019-03-15T03:46:30.043Z,959
2019-03-15T03:56:33.449Z,958.9
2019-03-15T04:06:36.895Z,958.8
2019-03-15T04:16:40.312Z,959
2019-03-15T04:26:43.698Z,958.9
2019-03-15T04:36:47.171Z,958.8
2019-03-15T04:46:50.633Z,958.7
2019-03-15T04:56:54.100Z,958.6
2019-03-15T05:06:57.537Z,958.6
2019-03-15T05:17:01.015Z,958.6
2019-03-15T05:27:04.472Z,958.5
2019-03-15T05:37:07.915Z,958.4
2019-03-15T05:47:11.378Z,958.3
2019-03-15T05:57:14.837Z,958.7
2019-03-15T06:07:18.296Z,959.2
2019-03-15T06:17:21.717Z,959
2019-03-15T06:27:25.124Z,959.3
2019-03-15T06:37:28.582Z,959.1
2019-03-15T06:47:32.037Z,959.1
2019-03-15T06:57:35.552Z,959.1
2019-03-15T07:07:38.998Z,958.8
2019-03-15T07:17:42.456Z,958.7
2019-03-15T07:27:45.931Z,959.3
2019-03-15T07:37:49.321Z,959.1
2019-03-15T07:47:52.766Z,958.9
2019-03-15T07:57:56.225Z,958.8
2019-03-15T08:07:59.735Z,958.7
2019-03-15T08:18:03.174Z,958.5
2019-03-15T08:28:06.647Z,958.5
2019-03-15T08:38:10.088Z,958.4
2019-03-15T08:48:13.487Z,958.6
2019-03-15T08:58:22.996Z,958.3
2019-03-15T09:08:26.427Z,958.1
2019-03-15T09:18:29.845Z,957.8
2019-03-15T09:28:33.303Z,957.6
2019-03-15T09:38:36.730Z,957.1
2019-03-15T09:48:43.441Z,956.9
2019-03-15T09:58:47.247Z,957.2
2019-03-15T10:08:50.744Z,957.2
2019-03-15T10:18:54.151Z,956.6
2019-03-15T10:28:57.652Z,956.6
2019-03-15T10:39:01.364Z,956.7
2019-03-15T10:49:04.751Z,956.9
2019-03-15T10:59:08.159Z,956.5
2019-03-15T11:09:12.568Z,956.5
2019-03-15T11:19:16.210Z,956.6
2019-03-15T11:29:19.624Z,956.8
2019-03-15T11:39:23.069Z,957.1
2019-03-15T11:49:28.873Z,956.8
2019-03-15T11:59:32.315Z,956.7
2019-03-15T12:09:35.774Z,956.6
2019-03-15T12:19:39.222Z,956.4
2019-03-15T12:29:42.652Z,956.6
2019-03-15T12:39:46.204Z,957
2019-03-15T12:49:49.646Z,957
2019-03-15T12:59:53.069Z,957.1
2019-03-15T13:09:56.493Z,957
2019-03-15T13:19:59.942Z,957
2019-03-15T13:30:03.400Z,956.9
2019-03-15T13:40:06.842Z,957
2019-03-15T13:50:10.305Z,957
2019-03-15T14:00:13.753Z,957
2019-03-15T14:10:17.209Z,964.5
2019-03-15T14:20:20.661Z,964.2
2019-03-15T14:30:24.114Z,964.2
2019-03-15T14:40:28.085Z,964.2
2019-03-15T14:50:31.556Z,964.1
2019-03-15T15:00:34.992Z,964.1
2019-03-15T15:10:38.489Z,964.5
2019-03-15T15:20:41.935Z,964.6
2019-03-15T15:30:45.380Z,964.6
2019-03-15T15:40:48.803Z,964.7
2019-03-15T15:50:52.251Z,964.5
2019-03-15T16:00:55.667Z,964.6
2019-03-15T16:10:59.097Z,964.7
2019-03-15T16:21:02.526Z,965
2019-03-15T16:31:05.954Z,964.7
2019-03-15T16:41:09.402Z,965
2019-03-15T16:51:20.357Z,965.3
2019-03-15T17:01:23.809Z,965.3
2019-03-15T17:11:27.248Z,965.4
2019-03-15T17:21:30.691Z,965.3
2019-03-15T17:31:34.123Z,965.7
2019-03-15T17:41:37.746Z,965.6
2019-03-15T17:51:41.354Z,966.1
2019-03-15T18:01:44.874Z,966.2
2019-03-15T18:11:48.427Z,966.1
2019-03-15T18:21:51.843Z,966.2
2019-03-15T18:31:55.269Z,966.1
2019-03-15T18:41:58.719Z,966.1
2019-03-15T18:52:02.139Z,966.2
2019-03-15T19:02:05.564Z,966.1
2019-03-15T19:12:09.028Z,965.9
2019-03-15T19:22:12.524Z,966
2019-03-15T19:32:15.937Z,966.3
2019-03-15T19:42:19.383Z,966.3
2019-03-15T19:52:22.811Z,966.3
2019-03-15T20:02:26.280Z,959.1
2019-03-15T20:12:29.712Z,959.4
2019-03-15T20:22:33.171Z,959.5
2019-03-15T20:32:36.595Z,959.5
2019-03-15T20:42:40.043Z,959.6
2019-03-15T20:52:43.477Z,959.8
2019-03-15T21:02:46.905Z,959.9
2019-03-15T21:12:50.374Z,959.9
2019-03-15T21:22:53.801Z,960.2
2019-03-15T21:32:57.273Z,960.6
2019-03-15T21:43:00.704Z,960.3
2019-03-15T21:53:04.158Z,960.3
2019-03-15T22:03:07.604Z,960.6
2019-03-15T22:13:11.016Z,960.6
2019-03-15T22:23:14.464Z,960.9
2019-03-15T22:33:17.916Z,960.9
2019-03-15T22:43:21.358Z,960.6
2019-03-15T22:53:24.760Z,960.9
2019-03-15T23:03:28.152Z,960.9
2019-03-15T23:13:31.574Z,961.3
2019-03-15T23:23:35.025Z,961.2
2019-03-15T23:33:38.468Z,961.1
2019-03-15T23:43:41.975Z,961.1
2019-03-15T23:53:45.420Z,961.3
